createdAt,value
2019-01-19T00:01:20.621Z,-2.90
2019-01-19T00:04:02.031Z,-2.80
2019-01-19T00:06:43.187Z,-2.80
2019-01-19T00:09:24.615Z,-2.80
2019-01-19T00:12:06.313Z,-2.80
2019-01-19T00:14:47.941Z,-2.90
2019-01-19T00:17:28.847Z,-2.90
2019-01-19T00:20:09.524Z,-2.90
2019-01-19T00:22:51.299Z,-3.00
2019-01-19T00:25:32.335Z,-3.00
2019-01-19T00:28:13.910Z,-3.00
2019-01-19T00:30:55.603Z,-3.00
2019-01-19T00:33:36.835Z,-3.00
2019-01-19T00:36:22.023Z,-3.10
2019-01-19T00:39:11.054Z,-3.10
2019-01-19T00:41:52.026Z,-3.10
2019-01-19T00:44:33.462Z,-3.10
2019-01-19T00:47:14.152Z,-3.20
2019-01-19T00:49:55.779Z,-3.30
2019-01-19T00:52:37.528Z,-3.30
2019-01-19T00:55:18.927Z,-3.30
2019-01-19T00:58:00.399Z,-3.30
2019-01-19T01:00:41.343Z,-3.30
2019-01-19T01:03:23.015Z,-3.30
2019-01-19T01:06:03.622Z,-3.30
2019-01-19T01:08:44.749Z,-3.40
2019-01-19T01:11:25.870Z,-3.40
2019-01-19T01:14:06.995Z,-3.40
2019-01-19T01:16:47.921Z,-3.40
2019-01-19T01:19:28.963Z,-3.40
2019-01-19T01:22:10.283Z,-3.50
2019-01-19T01:24:51.803Z,-3.40
2019-01-19T01:27:56.430Z,-3.50
2019-01-19T01:30:37.039Z,-3.50
2019-01-19T01:33:18.406Z,-3.60
2019-01-19T01:35:59.503Z,-3.60
2019-01-19T01:38:40.558Z,-3.60
2019-01-19T01:41:22.028Z,-3.60
2019-01-19T01:44:03.431Z,-3.70
2019-01-19T01:46:44.621Z,-3.70
2019-01-19T01:49:25.212Z,-3.70
2019-01-19T01:52:06.693Z,-3.70
2019-01-19T01:54:47.784Z,-3.70
2019-01-19T01:57:49.875Z,-3.70
2019-01-19T02:00:57.565Z,-3.70
2019-01-19T02:03:38.589Z,-3.70
2019-01-19T02:06:20.017Z,-3.70
2019-01-19T02:09:01.534Z,-3.70
2019-01-19T02:11:42.491Z,-3.80
2019-01-19T02:14:23.569Z,-3.70
2019-01-19T02:17:04.684Z,-3.80
2019-01-19T02:19:45.303Z,-3.80
2019-01-19T02:22:26.138Z,-3.80
2019-01-19T02:25:07.696Z,-3.90
2019-01-19T02:27:49.133Z,-3.90
2019-01-19T02:30:29.986Z,-3.90
2019-01-19T02:33:11.549Z,-3.90
2019-01-19T02:35:52.157Z,-3.80
2019-01-19T02:38:32.856Z,-3.80
2019-01-19T02:41:14.268Z,-3.90
2019-01-19T02:43:55.734Z,-3.90
2019-01-19T02:46:37.203Z,-3.90
2019-01-19T02:49:18.246Z,-4.00
2019-01-19T02:51:59.423Z,-4.00
2019-01-19T02:54:40.437Z,-4.00
2019-01-19T02:57:41.980Z,-4.00
2019-01-19T03:00:23.215Z,-4.00
2019-01-19T03:03:04.915Z,-4.00
2019-01-19T03:05:45.720Z,-4.00
2019-01-19T03:08:27.025Z,-4.10
2019-01-19T03:11:08.672Z,-4.10
2019-01-19T03:13:50.219Z,-4.10
2019-01-19T03:16:31.328Z,-4.10
2019-01-19T03:19:12.666Z,-4.10
2019-01-19T03:21:53.884Z,-4.10
2019-01-19T03:24:35.651Z,-4.10
2019-01-19T03:27:16.969Z,-4.20
2019-01-19T03:29:57.923Z,-4.20
2019-01-19T03:32:39.489Z,-4.30
2019-01-19T03:35:20.408Z,-4.20
2019-01-19T03:38:02.240Z,-4.30
2019-01-19T03:40:43.846Z,-4.30
2019-01-19T03:43:24.712Z,-4.30
2019-01-19T03:46:07.377Z,-4.30
2019-01-19T03:48:48.116Z,-4.30
2019-01-19T03:51:29.819Z,-4.40
2019-01-19T03:54:11.501Z,-4.30
2019-01-19T03:56:52.403Z,-4.30
2019-01-19T03:59:33.728Z,-4.40
2019-01-19T04:02:15.476Z,-4.40
2019-01-19T04:04:57.046Z,-4.50
2019-01-19T04:07:37.881Z,-4.50
2019-01-19T04:10:19.443Z,-4.40
2019-01-19T04:13:01.361Z,-4.40
2019-01-19T04:15:42.536Z,-4.50
2019-01-19T04:18:23.356Z,-4.60
2019-01-19T04:21:04.310Z,-4.60
2019-01-19T04:23:45.899Z,-4.60
2019-01-19T04:26:27.772Z,-4.60
2019-01-19T04:29:09.333Z,-4.50
2019-01-19T04:31:50.562Z,-4.50
2019-01-19T04:34:32.402Z,-4.50
2019-01-19T04:37:13.027Z,-4.50
2019-01-19T04:39:54.163Z,-4.50
2019-01-19T04:42:35.849Z,-4.50
2019-01-19T04:45:16.591Z,-4.60
2019-01-19T04:47:57.362Z,-4.60
2019-01-19T04:50:38.014Z,-4.60
2019-01-19T04:53:19.902Z,-4.60
2019-01-19T04:56:01.004Z,-4.60
2019-01-19T04:58:41.872Z,-4.50
2019-01-19T05:01:23.235Z,-4.60
2019-01-19T05:04:03.994Z,-4.70
2019-01-19T05:06:44.814Z,-4.60
2019-01-19T05:09:24.721Z,-4.70
2019-01-19T05:12:13.728Z,-4.70
2019-01-19T05:14:55.175Z,-4.70
2019-01-19T05:17:36.702Z,-4.80
2019-01-19T05:20:18.367Z,-4.70
2019-01-19T05:22:59.681Z,-4.80
2019-01-19T05:25:40.692Z,-4.70
2019-01-19T05:28:21.918Z,-4.80
2019-01-19T05:31:03.482Z,-4.80
2019-01-19T05:33:45.231Z,-4.90
2019-01-19T05:36:26.688Z,-4.80
2019-01-19T05:39:07.894Z,-4.90
2019-01-19T05:41:48.606Z,-4.90
2019-01-19T05:44:29.835Z,-4.80
2019-01-19T05:47:11.868Z,-4.80
2019-01-19T05:49:53.348Z,-4.80
2019-01-19T05:52:34.463Z,-4.90
2019-01-19T05:55:15.831Z,-4.90
2019-01-19T05:57:57.395Z,-4.90
2019-01-19T06:00:38.644Z,-4.90
2019-01-19T06:03:20.057Z,-4.90
2019-01-19T06:06:01.903Z,-4.90
2019-01-19T06:08:42.925Z,-4.90
2019-01-19T06:11:24.505Z,-4.90
2019-01-19T06:14:05.756Z,-4.90
2019-01-19T06:16:46.615Z,-4.90
2019-01-19T06:19:28.563Z,-4.90
2019-01-19T06:22:10.351Z,-4.90
2019-01-19T06:24:51.386Z,-4.90
2019-01-19T06:27:32.160Z,-5.00
2019-01-19T06:30:12.737Z,-5.00
2019-01-19T06:32:54.304Z,-4.90
2019-01-19T06:35:35.466Z,-4.90
2019-01-19T06:38:15.371Z,-5.00
2019-01-19T06:41:03.972Z,-5.00
2019-01-19T06:43:45.806Z,-5.00
2019-01-19T06:46:27.375Z,-5.00
2019-01-19T06:49:08.189Z,-5.00
2019-01-19T06:51:49.913Z,-5.00
2019-01-19T06:54:29.921Z,-5.00
2019-01-19T06:57:19.047Z,-5.00
2019-01-19T07:00:00.268Z,-5.00
2019-01-19T07:02:41.401Z,-4.90
2019-01-19T07:05:22.851Z,-5.00
2019-01-19T07:08:04.205Z,-4.90
2019-01-19T07:10:45.831Z,-4.90
2019-01-19T07:13:27.397Z,-4.90
2019-01-19T07:16:08.967Z,-4.90
2019-01-19T07:18:50.380Z,-4.90
2019-01-19T07:21:32.000Z,-4.80
2019-01-19T07:24:13.559Z,-4.80
2019-01-19T07:26:54.606Z,-4.70
2019-01-19T07:29:35.535Z,-4.70
2019-01-19T07:32:16.776Z,-4.70
2019-01-19T07:34:57.792Z,-4.60
2019-01-19T07:37:39.207Z,-4.60
2019-01-19T07:40:20.956Z,-4.50
2019-01-19T07:43:07.343Z,-4.50
2019-01-19T07:45:48.251Z,-4.40
2019-01-19T07:48:29.107Z,-4.20
2019-01-19T07:51:11.507Z,-4.10
2019-01-19T07:53:53.023Z,-4.00
2019-01-19T07:56:33.942Z,-3.80
2019-01-19T07:59:14.646Z,-3.70
2019-01-19T08:01:55.304Z,-3.50
2019-01-19T08:04:36.407Z,-3.50
2019-01-19T08:07:17.597Z,-3.40
2019-01-19T08:09:58.843Z,-3.40
2019-01-19T08:12:39.721Z,-3.30
2019-01-19T08:15:20.502Z,-3.20
2019-01-19T08:18:01.907Z,-3.10
2019-01-19T08:20:42.599Z,-3.10
2019-01-19T08:23:23.293Z,-3.00
2019-01-19T08:26:04.235Z,-2.80
2019-01-19T08:28:45.737Z,-2.80
2019-01-19T08:31:27.296Z,-2.80
2019-01-19T08:34:08.769Z,-2.70
2019-01-19T08:36:50.166Z,-2.60
2019-01-19T08:39:32.223Z,-2.60
2019-01-19T08:42:13.593Z,-2.50
2019-01-19T08:44:56.020Z,-2.50
2019-01-19T08:47:37.605Z,-2.50
2019-01-19T08:50:18.462Z,-2.50
2019-01-19T08:52:59.857Z,-2.40
2019-01-19T08:55:41.243Z,-2.30
2019-01-19T08:58:22.222Z,-2.30
2019-01-19T09:01:01.782Z,-2.20
2019-01-19T09:03:50.623Z,-2.20
2019-01-19T09:06:32.072Z,-2.10
2019-01-19T09:09:13.967Z,-2.10
2019-01-19T09:11:55.183Z,-2.10
2019-01-19T09:14:36.255Z,-2.10
2019-01-19T09:17:17.963Z,-2.00
2019-01-19T09:20:00.086Z,-2.00
2019-01-19T09:22:41.408Z,-2.00
2019-01-19T09:28:00.700Z,-1.90
2019-01-19T09:30:41.715Z,-1.80
2019-01-19T09:33:23.352Z,-1.80
2019-01-19T09:36:02.727Z,-1.80
2019-01-19T09:38:51.080Z,-1.80
2019-01-19T09:41:32.452Z,-1.70
2019-01-19T09:44:13.384Z,-1.70
2019-01-19T09:46:54.986Z,-1.70
2019-01-19T09:49:34.718Z,-1.70
2019-01-19T09:52:22.982Z,-1.60
2019-01-19T09:55:04.319Z,-1.50
2019-01-19T09:57:44.027Z,-1.50
2019-01-19T10:00:36.674Z,-1.40
2019-01-19T10:03:15.589Z,-1.40
2019-01-19T10:05:55.233Z,-1.40
2019-01-19T10:08:36.890Z,-1.30
2019-01-19T10:11:18.549Z,-1.20
2019-01-19T10:13:59.439Z,-1.20
2019-01-19T10:16:41.134Z,-1.00
2019-01-19T10:19:22.151Z,-0.90
2019-01-19T10:22:03.447Z,-0.80
2019-01-19T10:24:44.560Z,-0.70
2019-01-19T10:27:26.537Z,-0.70
2019-01-19T10:30:07.652Z,-0.60
2019-01-19T10:32:48.737Z,-0.60
2019-01-19T10:35:30.023Z,-0.50
2019-01-19T10:38:11.747Z,-0.50
2019-01-19T10:40:52.282Z,-0.40
2019-01-19T10:43:32.943Z,-0.40
2019-01-19T10:46:14.361Z,-0.30
2019-01-19T10:48:55.243Z,-0.20
2019-01-19T10:51:36.071Z,-0.20
2019-01-19T10:54:17.548Z,-0.20
2019-01-19T10:56:58.591Z,-0.30
2019-01-19T10:59:38.671Z,-0.30
2019-01-19T11:02:20.283Z,-0.30
2019-01-19T11:05:01.857Z,-0.40
2019-01-19T11:07:44.943Z,-0.30
2019-01-19T11:10:25.989Z,-0.30
2019-01-19T11:13:07.598Z,-0.30
2019-01-19T11:15:48.972Z,-0.30
2019-01-19T11:18:30.292Z,-0.30
2019-01-19T11:21:11.371Z,-0.20
2019-01-19T11:23:53.015Z,-0.30
2019-01-19T11:26:34.760Z,-0.20
2019-01-19T11:29:16.148Z,-0.20
2019-01-19T11:31:57.718Z,-0.10
2019-01-19T11:34:38.686Z,-0.10
2019-01-19T11:37:20.431Z,0.00
2019-01-19T11:40:01.523Z,0.10
2019-01-19T11:42:42.668Z,0.20
2019-01-19T11:45:24.320Z,0.20
2019-01-19T11:48:05.787Z,0.30
2019-01-19T11:50:47.452Z,0.30
2019-01-19T11:53:29.129Z,0.40
2019-01-19T11:56:12.241Z,0.40
2019-01-19T11:58:53.836Z,0.40
2019-01-19T12:01:34.745Z,0.40
2019-01-19T12:04:16.181Z,0.50
2019-01-19T12:06:56.967Z,0.50
2019-01-19T12:09:38.309Z,0.70
2019-01-19T12:12:18.883Z,0.70
2019-01-19T12:14:59.690Z,0.70
2019-01-19T12:17:40.445Z,0.80
2019-01-19T12:20:22.120Z,0.80
2019-01-19T12:23:03.230Z,1.00
2019-01-19T12:25:44.734Z,0.90
2019-01-19T12:28:26.022Z,1.00
2019-01-19T12:31:07.168Z,1.00
2019-01-19T12:33:48.963Z,1.00
2019-01-19T12:36:31.928Z,1.00
2019-01-19T12:39:12.890Z,0.90
2019-01-19T12:41:54.207Z,1.00
2019-01-19T12:44:35.124Z,1.00
2019-01-19T12:47:16.164Z,1.00
2019-01-19T12:49:57.886Z,1.10
2019-01-19T12:52:39.041Z,1.10
2019-01-19T12:55:20.809Z,1.00
2019-01-19T12:58:02.266Z,1.00
2019-01-19T13:00:43.482Z,1.00
2019-01-19T13:03:25.015Z,1.00
2019-01-19T13:06:06.352Z,1.00
2019-01-19T13:08:47.254Z,0.90
2019-01-19T13:11:28.906Z,1.00
2019-01-19T13:14:08.675Z,1.00
2019-01-19T13:16:49.667Z,1.00
2019-01-19T13:19:30.971Z,1.00
2019-01-19T13:22:12.692Z,1.00
2019-01-19T13:24:54.124Z,1.00
2019-01-19T13:27:35.249Z,0.90
2019-01-19T13:30:16.779Z,0.90
2019-01-19T13:32:58.478Z,0.80
2019-01-19T13:36:21.431Z,0.80
2019-01-19T13:39:28.864Z,0.70
2019-01-19T13:42:09.817Z,0.60
2019-01-19T13:44:51.151Z,0.60
2019-01-19T13:47:32.832Z,0.50
2019-01-19T13:50:14.365Z,0.50
2019-01-19T13:52:55.843Z,0.40
2019-01-19T13:55:37.496Z,0.40
2019-01-19T13:58:18.798Z,0.40
2019-01-19T14:01:00.633Z,0.40
2019-01-19T14:03:42.057Z,0.30
2019-01-19T14:06:23.434Z,0.40
2019-01-19T14:09:05.498Z,0.30
2019-01-19T14:11:46.540Z,0.30
2019-01-19T14:14:27.416Z,0.20
2019-01-19T14:17:08.700Z,0.20
2019-01-19T14:19:49.763Z,0.20
2019-01-19T14:22:30.865Z,0.20
2019-01-19T14:25:12.436Z,0.20
2019-01-19T14:27:53.641Z,0.20
2019-01-19T14:30:35.620Z,0.20
2019-01-19T14:33:16.989Z,0.20
2019-01-19T14:35:58.892Z,0.10
2019-01-19T14:38:40.036Z,0.10
2019-01-19T14:41:20.688Z,0.00
2019-01-19T14:44:02.247Z,-0.10
2019-01-19T14:46:43.464Z,0.00
2019-01-19T14:49:24.422Z,-0.20
2019-01-19T14:52:06.971Z,-0.30
2019-01-19T14:55:14.485Z,-0.40
2019-01-19T14:57:56.997Z,-0.50
2019-01-19T15:01:04.695Z,-0.60
2019-01-19T15:03:46.188Z,-0.70
2019-01-19T15:06:27.012Z,-0.80
2019-01-19T15:09:08.115Z,-0.90
2019-01-19T15:11:49.073Z,-1.00
2019-01-19T15:14:30.823Z,-1.00
2019-01-19T15:17:12.511Z,-1.10
2019-01-19T15:19:53.849Z,-1.10
2019-01-19T15:22:35.221Z,-1.20
2019-01-19T15:25:16.509Z,-1.20
2019-01-19T15:27:57.425Z,-1.30
2019-01-19T15:30:38.325Z,-1.40
2019-01-19T15:33:19.257Z,-1.50
2019-01-19T15:36:00.760Z,-1.50
2019-01-19T15:38:42.145Z,-1.50
2019-01-19T15:41:43.177Z,-1.50
2019-01-19T15:44:24.922Z,-1.60
2019-01-19T15:47:05.893Z,-1.60
2019-01-19T15:49:47.213Z,-1.70
2019-01-19T15:52:52.528Z,-1.70
2019-01-19T15:56:00.180Z,-1.80
2019-01-19T15:58:41.603Z,-1.90
2019-01-19T16:01:23.247Z,-1.90
2019-01-19T16:04:04.522Z,-1.90
2019-01-19T16:06:45.378Z,-2.00
2019-01-19T16:09:26.274Z,-2.00
2019-01-19T16:12:07.851Z,-2.00
2019-01-19T16:14:49.055Z,-2.10
2019-01-19T16:17:29.800Z,-2.10
2019-01-19T16:20:11.466Z,-2.10
2019-01-19T16:22:53.279Z,-2.20
2019-01-19T16:25:34.805Z,-2.20
2019-01-19T16:28:16.224Z,-2.20
2019-01-19T16:30:57.198Z,-2.30
2019-01-19T16:33:38.835Z,-2.30
2019-01-19T16:36:20.987Z,-2.30
2019-01-19T16:39:02.099Z,-2.40
2019-01-19T16:41:43.920Z,-2.40
2019-01-19T16:44:25.344Z,-2.40
2019-01-19T16:47:06.779Z,-2.30
2019-01-19T16:49:48.295Z,-2.40
2019-01-19T16:52:29.007Z,-2.40
2019-01-19T16:55:09.838Z,-2.50
2019-01-19T16:57:51.476Z,-2.50
2019-01-19T17:00:32.015Z,-2.60
2019-01-19T17:03:13.068Z,-2.60
2019-01-19T17:05:54.397Z,-2.70
2019-01-19T17:08:35.947Z,-2.70
2019-01-19T17:11:16.850Z,-2.70
2019-01-19T17:13:57.718Z,-2.80
2019-01-19T17:16:42.441Z,-2.80
2019-01-19T17:19:50.026Z,-2.90
2019-01-19T17:22:31.435Z,-2.90
2019-01-19T17:25:13.266Z,-2.90
2019-01-19T17:27:54.430Z,-2.90
2019-01-19T17:30:53.083Z,-2.90
2019-01-19T17:33:34.186Z,-3.00
2019-01-19T17:36:15.654Z,-3.00
2019-01-19T17:38:57.305Z,-3.10
2019-01-19T17:42:04.979Z,-3.10
2019-01-19T17:44:57.891Z,-3.10
2019-01-19T17:47:39.544Z,-3.10
2019-01-19T17:50:20.777Z,-3.20
2019-01-19T17:53:02.386Z,-3.20
2019-01-19T17:55:42.994Z,-3.20
2019-01-19T17:58:24.114Z,-3.20
2019-01-19T18:01:05.410Z,-3.30
2019-01-19T18:03:46.979Z,-3.30
2019-01-19T18:06:28.068Z,-3.30
2019-01-19T18:09:09.631Z,-3.30
2019-01-19T18:11:50.704Z,-3.30
2019-01-19T18:14:31.590Z,-3.40
2019-01-19T18:17:12.369Z,-3.40
2019-01-19T18:19:53.676Z,-3.40
2019-01-19T18:22:35.152Z,-3.40
2019-01-19T18:25:16.489Z,-3.50
2019-01-19T18:27:58.151Z,-3.50
2019-01-19T18:30:40.064Z,-3.50
2019-01-19T18:33:21.133Z,-3.50
2019-01-19T18:36:01.783Z,-3.50
2019-01-19T18:38:43.695Z,-3.60
2019-01-19T18:41:24.310Z,-3.60
2019-01-19T18:44:11.413Z,-3.60
2019-01-19T18:50:21.690Z,-3.70
2019-01-19T18:53:03.153Z,-3.60
2019-01-19T18:55:43.723Z,-3.70
2019-01-19T18:58:24.953Z,-3.70
2019-01-19T19:01:05.986Z,-3.70
2019-01-19T19:03:46.928Z,-3.70
2019-01-19T19:06:27.565Z,-3.70
2019-01-19T19:09:09.664Z,-3.80
2019-01-19T19:11:50.831Z,-3.80
2019-01-19T19:14:31.856Z,-3.80
2019-01-19T19:17:12.915Z,-3.80
2019-01-19T19:19:53.567Z,-3.80
2019-01-19T19:22:34.174Z,-3.80
2019-01-19T19:25:15.996Z,-3.80
2019-01-19T19:27:57.181Z,-3.80
2019-01-19T19:30:38.984Z,-3.90
2019-01-19T19:33:20.726Z,-3.90
2019-01-19T19:36:01.855Z,-3.90
2019-01-19T19:38:42.557Z,-3.90
2019-01-19T19:41:23.494Z,-3.90
2019-01-19T19:44:05.027Z,-3.90
2019-01-19T19:46:45.955Z,-4.00
2019-01-19T19:49:27.156Z,-4.00
2019-01-19T19:52:08.489Z,-4.00
2019-01-19T19:54:50.466Z,-4.10
2019-01-19T19:57:31.982Z,-4.10
2019-01-19T20:00:11.820Z,-4.10
2019-01-19T20:03:00.250Z,-4.10
2019-01-19T20:05:40.296Z,-4.10
2019-01-19T20:08:29.146Z,-4.10
2019-01-19T20:11:10.616Z,-4.20
2019-01-19T20:13:51.502Z,-4.20
2019-01-19T20:16:32.735Z,-4.20
2019-01-19T20:19:13.615Z,-4.20
2019-01-19T20:21:55.039Z,-4.20
2019-01-19T20:24:36.597Z,-4.20
2019-01-19T20:27:17.379Z,-4.30
2019-01-19T20:29:57.502Z,-4.30
2019-01-19T20:32:39.111Z,-4.30
2019-01-19T20:35:19.824Z,-4.30
2019-01-19T20:38:01.190Z,-4.30
2019-01-19T20:40:42.700Z,-4.30
2019-01-19T20:43:24.085Z,-4.30
2019-01-19T20:46:05.229Z,-4.30
2019-01-19T20:48:45.325Z,-4.40
2019-01-19T20:51:26.085Z,-4.40
2019-01-19T20:54:07.081Z,-4.40
2019-01-19T20:56:48.432Z,-4.40
2019-01-19T20:59:29.618Z,-4.50
2019-01-19T21:02:10.637Z,-4.50
2019-01-19T21:04:51.489Z,-4.40
2019-01-19T21:07:33.052Z,-4.50
2019-01-19T21:10:14.095Z,-4.50
2019-01-19T21:12:55.768Z,-4.50
2019-01-19T21:15:37.228Z,-4.50
2019-01-19T21:18:18.524Z,-4.50
2019-01-19T21:21:00.034Z,-4.60
2019-01-19T21:23:40.884Z,-4.60
2019-01-19T21:26:21.576Z,-4.60
2019-01-19T21:29:02.384Z,-4.60
2019-01-19T21:31:44.194Z,-4.60
2019-01-19T21:34:26.014Z,-4.60
2019-01-19T21:37:07.438Z,-4.60
2019-01-19T21:39:48.351Z,-4.60
2019-01-19T21:42:27.791Z,-4.60
2019-01-19T21:45:17.350Z,-4.60
2019-01-19T21:47:58.769Z,-4.70
2019-01-19T21:50:40.313Z,-4.70
2019-01-19T21:53:21.676Z,-4.70
2019-01-19T21:56:03.029Z,-4.70
2019-01-19T21:58:44.337Z,-4.70
2019-01-19T22:01:25.433Z,-4.70
2019-01-19T22:04:06.583Z,-4.80
2019-01-19T22:06:47.578Z,-4.80
2019-01-19T22:09:28.906Z,-4.80
2019-01-19T22:12:09.928Z,-4.70
2019-01-19T22:14:50.729Z,-4.80
2019-01-19T22:17:31.548Z,-4.80
2019-01-19T22:20:12.470Z,-4.80
2019-01-19T22:22:51.860Z,-4.80
2019-01-19T22:25:40.897Z,-4.80
2019-01-19T22:28:22.633Z,-4.90
2019-01-19T22:31:03.776Z,-4.90
2019-01-19T22:33:45.160Z,-4.80
2019-01-19T22:36:26.466Z,-4.80
2019-01-19T22:39:08.394Z,-4.90
2019-01-19T22:41:49.547Z,-4.90
2019-01-19T22:44:31.276Z,-4.90
2019-01-19T22:47:13.065Z,-4.90
2019-01-19T22:49:54.360Z,-5.00
2019-01-19T22:52:35.819Z,-5.00
2019-01-19T22:55:17.278Z,-4.90
2019-01-19T22:57:58.289Z,-5.00
2019-01-19T23:03:49.290Z,-5.00
2019-01-19T23:06:30.103Z,-5.00
2019-01-19T23:09:12.258Z,-5.00
2019-01-19T23:11:53.546Z,-5.00
2019-01-19T23:14:36.146Z,-5.00
2019-01-19T23:17:16.939Z,-5.00
2019-01-19T23:19:58.708Z,-5.00
2019-01-19T23:22:39.621Z,-5.00
2019-01-19T23:25:20.952Z,-5.00
2019-01-19T23:28:02.251Z,-5.00
2019-01-19T23:30:43.012Z,-5.10
2019-01-19T23:33:24.206Z,-5.10
2019-01-19T23:36:05.091Z,-5.10
2019-01-19T23:38:45.996Z,-5.20
2019-01-19T23:41:25.937Z,-5.20
2019-01-19T23:44:06.597Z,-5.20
2019-01-19T23:46:47.529Z,-5.20
2019-01-19T23:49:29.473Z,-5.20
2019-01-19T23:52:11.127Z,-5.20
2019-01-19T23:54:52.554Z,-5.20
2019-01-19T23:57:33.197Z,-5.20
